Flight Track Log - Related Links

Times and Time Zones

All times are in EDT time to prevent confusion due to time zone crossing. See the DAL1029 flight status page for this flight to view local times or setup timezone preferences in your user account.

Time Position Orientation Groundspeed Altitude Reporting Facility
EDT Latitude Longitude Course Direction KTS MPH feet Rate Location/Type
Sat 11:42:02 AM 44.8364 -93.1389 125° Southeast 209 241 3,400  Level Minneapolis Center
Sat 11:43:00 AM 44.5843 -92.9393 145° Southeast  Level Estimated
Sat 11:43:04 AM 44.7778 -93.0736 142° Southeast 267 307 5,900  Level Minneapolis Center
Sat 11:44:00 AM 44.4850 -92.8458 137° Southeast  Level Estimated
Sat 11:44:06 AM 44.7108 -93.0000 142° Southeast 292 336 8,800  Level Minneapolis Center
Sat 11:45:00 AM 44.3855 -92.7526 115° Southeast  Level Estimated
Sat 11:45:19 AM 44.6419 -92.9242 142° Southeast 317 365 10,900  Level Minneapolis Center
Sat 11:46:00 AM 44.2860 -92.6598 120° Southeast  Level Estimated
Sat 11:46:22 AM 44.5392 -92.8136 143° Southeast 391 450 13,100  Level Minneapolis Center
Sat 11:47:00 AM 44.1893 -92.5699 125° Southeast  Level Estimated
Sat 11:47:24 AM 44.4542 -92.7103 139° Southeast 403 464 16,400  Level Minneapolis Center
Sat 11:48:25 AM 44.3939 -92.5706 121° Southeast 419 482 18,300 2,000 Climbing Minneapolis Center
Sat 11:49:27 AM 44.3175 -92.3933 121° Southeast 444 511 20,500 1,935 Climbing Minneapolis Center
Sat 11:50:29 AM 44.2506 -92.2397 121° Southeast 461 531 22,300 1,694 Climbing Minneapolis Center
Sat 11:51:31 AM 44.1819 -92.0825 121° Southeast 474 545 24,000 1,620 Climbing Minneapolis Center
Sat 11:52:46 AM 44.0708 -91.9253 134° Southeast 477 549 26,000 1,544 Climbing Minneapolis Center
Sat 11:53:47 AM 43.9508 -91.8375 152° Southeast 483 556 27,500 1,289 Climbing Minneapolis Center
Sat 11:55:01 AM 43.8319 -91.7456 151° Southeast 488 562 28,900 1,577 Climbing Minneapolis Center
Sat 11:56:04 AM 43.6911 -91.6261 148° Southeast 495 570 31,100 1,968 Climbing Minneapolis Center
Sat 11:57:06 AM 43.5553 -91.5089 148° Southeast 489 563 33,000 1,597 Climbing Minneapolis Center
Sat 11:58:08 AM 43.4403 -91.4133 149° Southeast 487 560 34,400 1,161 Climbing Minneapolis Center
Sat 11:59:10 AM 43.3264 -91.3175 149° Southeast 484 557 35,400 1,065 Climbing Minneapolis Center
Sat 12:00:12 PM 43.2111 -91.2231 149° Southeast 484 557 36,600 1,016 Climbing Minneapolis Center
Sat 12:01:14 PM 43.0956 -91.1278 149° Southeast 485 558 37,500 726 Climbing Minneapolis Center
Sat 12:02:16 PM 42.9792 -91.0317 149° Southeast 488 562 38,100 581 Climbing Minneapolis Center
Sat 12:03:18 PM 42.8378 -90.9178 149° Southeast 490 564 38,700 435 Climbing Minneapolis Center
Sat 12:04:20 PM 42.7206 -90.8217 149° Southeast 492 566 39,000 145 Climbing Minneapolis Center
Sat 12:05:22 PM 42.6036 -90.7297 150° Southeast 490 564 39,000  Level Minneapolis Center
Sat 12:06:24 PM 42.4897 -90.6364 149° Southeast 484 557 39,000  Level Minneapolis Center
Sat 12:07:48 PM 42.3300 -90.5083 149° Southeast 486 559 39,000  Level Chicago Center
Sat 12:08:50 PM 42.2158 -90.4169 149° Southeast 483 556 39,000  Level Chicago Center
Sat 12:09:52 PM 42.0761 -90.3058 149° Southeast 489 563 39,000  Level Chicago Center
Sat 12:10:54 PM 41.9594 -90.2131 149° Southeast 492 566 39,000  Level Chicago Center
Sat 12:11:56 PM 41.8431 -90.1219 150° Southeast 491 565 39,000  Level Chicago Center
Sat 12:12:58 PM 41.7214 -90.0253 149° Southeast 492 566 39,000  Level Chicago Center
Sat 12:14:00 PM 41.6025 -89.9328 150° Southeast 493 567 39,000  Level Chicago Center
Sat 12:15:02 PM 41.4853 -89.8403 149° Southeast 490 564 39,000  Level Chicago Center
Sat 12:16:03 PM 41.3672 -89.7486 150° Southeast 489 563 39,000  Level Chicago Center
Sat 12:17:05 PM 41.2464 -89.6744 155° Southeast 477 549 39,000  Level Chicago Center
Sat 12:18:07 PM 41.0917 -89.6122 163° South 481 554 39,000  Level Chicago Center
Sat 12:19:09 PM 40.9628 -89.5667 165° South 480 552 39,000  Level Chicago Center
Sat 12:20:11 PM 40.8339 -89.5156 163° South 478 550 39,000  Level Chicago Center
Sat 12:21:13 PM 40.7028 -89.4658 164° South 481 554 39,000  Level Chicago Center
Sat 12:22:15 PM 40.5731 -89.4172 164° South 479 551 39,000  Level Chicago Center
Sat 12:23:17 PM 40.4444 -89.3703 164° South 478 550 39,000  Level Chicago Center
Sat 12:24:19 PM 40.3175 -89.3228 164° South 474 545 39,000  Level Chicago Center
Sat 12:25:21 PM 40.1892 -89.2744 164° South 477 549 39,000  Level Chicago Center
Sat 12:26:23 PM 40.0608 -89.2269 164° South 479 551 39,000  Level Chicago Center
Sat 12:27:22 PM 39.9325 -89.1800 164° South 476 548 39,000  Level Kansas City Center
Sat 12:28:23 PM 39.8047 -89.1342 165° South 477 549 39,000  Level Kansas City Center
Sat 12:29:25 PM 39.6514 -89.0783 164° South 476 548 39,000  Level Kansas City Center
Sat 12:30:27 PM 39.5231 -89.0328 165° South 477 549 39,000  Level Kansas City Center
Sat 12:31:28 PM 39.3950 -88.9858 164° South 475 547 39,000  Level Kansas City Center
Sat 12:32:30 PM 39.2678 -88.9408 165° South 473 544 39,000  Level Kansas City Center
Sat 12:33:32 PM 39.1436 -88.8972 165° South 466 536 39,000  Level Kansas City Center
Sat 12:34:33 PM 39.0156 -88.8525 165° South 471 542 39,000  Level Kansas City Center
Sat 12:35:35 PM 38.8911 -88.8072 164° South 468 539 39,000  Level Kansas City Center
Sat 12:36:37 PM 38.7656 -88.7625 164° South 468 539 39,000  Level Kansas City Center
Sat 12:37:38 PM 38.6136 -88.7075 164° South 469 540 39,000  Level Kansas City Center
Sat 12:38:40 PM 38.4842 -88.6628 165° South 474 545 39,000  Level Kansas City Center
Sat 12:39:42 PM 38.3525 -88.6150 164° South 470 541 39,000  Level Kansas City Center
Sat 12:40:43 PM 38.2253 -88.5725 165° South 470 541 39,000  Level Kansas City Center
Sat 12:41:45 PM 38.0983 -88.5286 165° South 471 542 39,000  Level Kansas City Center
Sat 12:42:47 PM 37.9725 -88.4839 164° South 471 542 39,000  Level Kansas City Center
Sat 12:43:48 PM 37.8661 -88.3936 146° Southeast 468 539 39,000  Level Kansas City Center
Sat 12:44:50 PM 37.7606 -88.2914 143° Southeast 474 545 39,000  Level Kansas City Center
Sat 12:45:52 PM 37.6594 -88.1878 141° Southeast 472 543 39,000  Level Kansas City Center
Sat 12:46:53 PM 37.5358 -88.0631 141° Southeast 473 544 39,000  Level Kansas City Center
Sat 12:47:55 PM 37.4333 -87.9606 142° Southeast 471 542 39,000  Level Kansas City Center
Sat 12:48:57 PM 37.3311 -87.8583 141° Southeast 471 542 39,000  Level Kansas City Center
Sat 12:49:58 PM 37.2281 -87.7575 142° Southeast 470 541 39,000  Level Kansas City Center
Sat 12:51:00 PM 37.1228 -87.6594 143° Southeast 471 542 39,000  Level Kansas City Center
Sat 12:52:02 PM 37.0175 -87.5636 144° Southeast 469 540 39,000  Level Kansas City Center
Sat 12:53:16 PM 36.8850 -87.4414 144° Southeast 477 549 39,000 -90 Level Memphis Center
Sat 12:54:16 PM 36.7786 -87.3469 145° Southeast 477 549 38,800 -900 Descending Memphis Center
Sat 12:55:16 PM 36.6742 -87.2500 143° Southeast 472 543 37,200 -1,450 Descending Memphis Center
Sat 12:56:16 PM 36.5653 -87.1533 145° Southeast 477 549 35,900 -1,100 Descending Memphis Center
Sat 12:57:16 PM 36.4608 -87.0594 144° Southeast 477 549 35,000 -1,200 Descending Memphis Center
Sat 12:58:16 PM 36.3453 -86.9533 144° Southeast 482 555 33,500 -1,400 Descending Memphis Center
Sat 12:59:16 PM 36.2319 -86.8553 145° Southeast 501 577 32,200 -1,200 Descending Memphis Center
Sat 01:00:16 PM 36.1208 -86.7547 144° Southeast 510 587 31,100 -600 Descending Memphis Center
Sat 01:01:16 PM 36.0117 -86.6567 144° Southeast 498 573 31,000 -50 Descending Memphis Center
Sat 01:02:16 PM 35.9003 -86.5567 144° Southeast 498 573 31,000  Level Memphis Center
Sat 01:04:09 PM 35.6900 -86.3733 145° Southeast 490 564 31,000  Level Atlanta Center
Sat 01:05:09 PM 35.5831 -86.2783 144° Southeast 482 555 31,000  Level Atlanta Center
Sat 01:06:09 PM 35.4722 -86.1833 145° Southeast 487 560 31,000 -200 Level Atlanta Center
Sat 01:07:09 PM 35.3633 -86.0864 144° Southeast 487 560 30,600 -850 Descending Atlanta Center
Sat 01:08:09 PM 35.2542 -85.9922 145° Southeast 487 560 29,300 -1,350 Descending Atlanta Center
Sat 01:09:09 PM 35.1347 -85.8853 144° Southeast 487 560 27,900 -1,350 Descending Atlanta Center
Sat 01:10:09 PM 35.0214 -85.7939 147° Southeast 487 560 26,600 -1,300 Descending Atlanta Center
Sat 01:11:09 PM 34.9081 -85.7028 147° Southeast 487 560 25,300 -1,300 Descending Atlanta Center
Sat 01:12:09 PM 34.7944 -85.6144 147° Southeast 487 560 24,000 -650 Descending Atlanta Center
Sat 01:13:09 PM 34.6786 -85.5239 147° Southeast 487 560 24,000 -300 Level Atlanta Center
Sat 01:14:09 PM 34.5669 -85.4364 147° Southeast 487 560 23,400 -750 Descending Atlanta Center
Sat 01:15:09 PM 34.4700 -85.3389 140° Southeast 475 547 22,500 -1,350 Descending Atlanta Center
Sat 01:16:09 PM 34.3997 -85.2522 134° Southeast 459 528 20,700 -2,100 Descending Atlanta Center
Sat 01:17:09 PM 34.3194 -85.1303 129° Southeast 425 489 18,300 -2,400 Descending Atlanta Center
Sat 01:18:09 PM 34.2453 -85.0214 129° Southeast 420 483 15,900 -1,900 Descending Atlanta Center
Sat 01:19:09 PM 34.1667 -84.9200 133° Southeast 420 483 14,500 -1,050 Descending Atlanta Center
Sat 01:20:09 PM 34.0733 -84.8464 147° Southeast 408 470 13,800 -1,200 Descending Atlanta Center
Sat 01:21:09 PM 33.9758 -84.7678 146° Southeast 397 457 12,100 -900 Descending Atlanta Center
Sat 01:22:09 PM 33.8925 -84.7069 149° Southeast 364 419 12,000 -50 Descending Atlanta Center
Sat 01:23:09 PM 33.8261 -84.6589 149° Southeast 323 372 12,000  Level Atlanta Center
Sat 01:24:09 PM 33.7533 -84.6008 146° Southeast 316 364 12,000 -500 Level Atlanta Center
Sat 01:25:09 PM 33.7328 -84.5033 104° East 283 326 11,000 -1,250 Descending Atlanta Center
Sat 01:26:09 PM 33.7311 -84.4036 91° East 283 326 9,500 -1,350 Descending Atlanta Center
Sat 01:27:09 PM 33.7314 -84.3036 90° East 288 331 8,300 -900 Descending Atlanta Center
Sat 01:28:29 PM 33.7333 -84.1833 89° East 249 287 7,400 -857 Descending Atlanta TRACON
Sat 01:29:29 PM 33.7333 -84.1000 90° East 235 270 6,300 -1,200 Descending Atlanta TRACON
Sat 01:30:29 PM 33.7333 -84.0167 90° East 232 267 5,000 -684 Descending Atlanta TRACON
Sat 01:31:23 PM 33.7000 -83.9833 140° Southeast 249 287 5,000 -53 Level Atlanta TRACON
Sat 01:32:23 PM 33.6667 -84.0500 239° Southwest 227 261 4,900 -50 Descending Atlanta TRACON
Sat 01:33:23 PM 33.6500 -84.1167 253° West 229 264 4,900 -300 Level Atlanta TRACON
Sat 01:34:23 PM 33.6500 -84.2000 270° West 225 259 4,300 -850 Descending Atlanta TRACON
Sat 01:35:23 PM 33.6500 -84.2667 270° West 198 228 3,200 -1,000 Descending Atlanta TRACON
Sat 01:36:23 PM 33.6500 -84.3333 270° West 173 199 2,300 -850 Descending Atlanta TRACON
Sat 01:37:23 PM 33.6500 -84.3833 270° West 147 169 1,500 -800 Descending Atlanta TRACON

Login

Don't have an account? Register now (free) for customized features, flight alerts, and more!